sensor_id;sensor_type;location;lat;lon;timestamp;P1;durP1;ratioP1;P2;durP2;ratioP2
24145;SDS011;12308;50.948;4.706;2023-03-24T00:02:23;7.10;;;3.60;;
24145;SDS011;12308;50.948;4.706;2023-03-24T00:04:49;5.50;;;3.10;;
24145;SDS011;12308;50.948;4.706;2023-03-24T00:07:17;6.75;;;4.07;;
24145;SDS011;12308;50.948;4.706;2023-03-24T00:09:43;7.47;;;3.30;;
24145;SDS011;12308;50.948;4.706;2023-03-24T00:12:10;9.30;;;3.53;;
24145;SDS011;12308;50.948;4.706;2023-03-24T00:14:43;6.18;;;3.60;;
24145;SDS011;12308;50.948;4.706;2023-03-24T00:17:12;7.95;;;3.25;;
24145;SDS011;12308;50.948;4.706;2023-03-24T00:19:41;5.10;;;3.47;;
24145;SDS011;12308;50.948;4.706;2023-03-24T00:22:09;7.13;;;3.20;;
24145;SDS011;12308;50.948;4.706;2023-03-24T00:24:39;5.15;;;3.10;;
24145;SDS011;12308;50.948;4.706;2023-03-24T00:27:05;6.18;;;3.28;;
24145;SDS011;12308;50.948;4.706;2023-03-24T00:29:31;9.07;;;3.15;;
24145;SDS011;12308;50.948;4.706;2023-03-24T00:31:57;7.88;;;3.55;;
24145;SDS011;12308;50.948;4.706;2023-03-24T00:34:24;7.20;;;2.97;;
24145;SDS011;12308;50.948;4.706;2023-03-24T00:36:50;6.70;;;3.05;;
24145;SDS011;12308;50.948;4.706;2023-03-24T00:39:19;7.65;;;3.38;;
24145;SDS011;12308;50.948;4.706;2023-03-24T00:41:45;5.18;;;3.40;;
24145;SDS011;12308;50.948;4.706;2023-03-24T00:44:12;5.75;;;3.10;;
24145;SDS011;12308;50.948;4.706;2023-03-24T00:46:44;6.25;;;3.45;;
24145;SDS011;12308;50.948;4.706;2023-03-24T00:49:19;8.38;;;3.20;;
24145;SDS011;12308;50.948;4.706;2023-03-24T00:52:13;7.45;;;3.20;;
24145;SDS011;12308;50.948;4.706;2023-03-24T00:54:44;5.78;;;3.22;;
24145;SDS011;12308;50.948;4.706;2023-03-24T00:57:15;5.47;;;2.87;;
24145;SDS011;12308;50.948;4.706;2023-03-24T00:59:48;4.88;;;2.83;;
24145;SDS011;12308;50.948;4.706;2023-03-24T01:02:15;7.95;;;3.55;;
24145;SDS011;12308;50.948;4.706;2023-03-24T01:07:13;7.10;;;2.75;;
24145;SDS011;12308;50.948;4.706;2023-03-24T01:09:42;6.90;;;3.47;;
24145;SDS011;12308;50.948;4.706;2023-03-24T01:12:15;9.38;;;4.07;;
24145;SDS011;12308;50.948;4.706;2023-03-24T01:14:44;7.63;;;3.03;;
24145;SDS011;12308;50.948;4.706;2023-03-24T01:17:10;9.02;;;3.45;;
24145;SDS011;12308;50.948;4.706;2023-03-24T01:19:37;7.43;;;3.55;;
24145;SDS011;12308;50.948;4.706;2023-03-24T01:22:04;6.13;;;3.60;;
24145;SDS011;12308;50.948;4.706;2023-03-24T01:24:31;9.95;;;3.55;;
24145;SDS011;12308;50.948;4.706;2023-03-24T01:26:57;5.10;;;3.35;;
24145;SDS011;12308;50.948;4.706;2023-03-24T01:29:23;7.13;;;3.47;;
24145;SDS011;12308;50.948;4.706;2023-03-24T01:31:49;7.00;;;3.95;;
24145;SDS011;12308;50.948;4.706;2023-03-24T01:34:15;8.77;;;3.83;;
24145;SDS011;12308;50.948;4.706;2023-03-24T01:36:40;7.97;;;3.88;;
24145;SDS011;12308;50.948;4.706;2023-03-24T01:39:06;9.20;;;4.78;;
24145;SDS011;12308;50.948;4.706;2023-03-24T01:41:33;8.18;;;4.00;;
24145;SDS011;12308;50.948;4.706;2023-03-24T01:44:00;8.82;;;3.60;;
24145;SDS011;12308;50.948;4.706;2023-03-24T01:46:46;8.32;;;3.60;;
24145;SDS011;12308;50.948;4.706;2023-03-24T01:49:12;11.35;;;3.85;;
24145;SDS011;12308;50.948;4.706;2023-03-24T01:51:39;6.80;;;3.40;;
24145;SDS011;12308;50.948;4.706;2023-03-24T01:54:10;5.85;;;3.58;;
24145;SDS011;12308;50.948;4.706;2023-03-24T01:57:30;7.97;;;3.50;;
24145;SDS011;12308;50.948;4.706;2023-03-24T01:59:39;6.03;;;3.45;;
24145;SDS011;12308;50.948;4.706;2023-03-24T02:02:06;5.10;;;3.38;;
24145;SDS011;12308;50.948;4.706;2023-03-24T02:04:37;6.22;;;3.35;;
24145;SDS011;12308;50.948;4.706;2023-03-24T02:07:09;9.02;;;3.50;;
24145;SDS011;12308;50.948;4.706;2023-03-24T02:09:42;7.45;;;3.50;;
24145;SDS011;12308;50.948;4.706;2023-03-24T02:12:08;6.22;;;3.22;;
24145;SDS011;12308;50.948;4.706;2023-03-24T02:14:34;9.60;;;3.42;;
24145;SDS011;12308;50.948;4.706;2023-03-24T02:25:33;6.47;;;3.03;;
24145;SDS011;12308;50.948;4.706;2023-03-24T02:31:26;9.70;;;2.72;;
24145;SDS011;12308;50.948;4.706;2023-03-24T02:42:42;4.20;;;1.42;;
24145;SDS011;12308;50.948;4.706;2023-03-24T02:48:46;2.95;;;0.75;;
24145;SDS011;12308;50.948;4.706;2023-03-24T02:51:28;3.65;;;0.90;;
24145;SDS011;12308;50.948;4.706;2023-03-24T02:54:15;4.78;;;1.25;;
24145;SDS011;12308;50.948;4.706;2023-03-24T02:59:56;2.42;;;1.02;;
24145;SDS011;12308;50.948;4.706;2023-03-24T03:02:13;8.43;;;1.35;;
24145;SDS011;12308;50.948;4.706;2023-03-24T03:04:55;7.53;;;1.08;;
24145;SDS011;12308;50.948;4.706;2023-03-24T03:07:28;5.20;;;1.20;;
24145;SDS011;12308;50.948;4.706;2023-03-24T03:10:05;6.35;;;1.02;;
24145;SDS011;12308;50.948;4.706;2023-03-24T03:12:39;3.80;;;1.42;;
24145;SDS011;12308;50.948;4.706;2023-03-24T03:15:13;7.00;;;1.20;;
24145;SDS011;12308;50.948;4.706;2023-03-24T03:18:26;8.02;;;1.50;;
24145;SDS011;12308;50.948;4.706;2023-03-24T03:20:39;4.32;;;1.30;;
24145;SDS011;12308;50.948;4.706;2023-03-24T03:23:14;6.25;;;1.67;;
24145;SDS011;12308;50.948;4.706;2023-03-24T03:25:47;5.32;;;1.17;;
24145;SDS011;12308;50.948;4.706;2023-03-24T03:28:22;5.93;;;1.73;;
24145;SDS011;12308;50.948;4.706;2023-03-24T03:30:54;7.18;;;1.42;;
24145;SDS011;12308;50.948;4.706;2023-03-24T03:33:24;6.82;;;1.17;;
24145;SDS011;12308;50.948;4.706;2023-03-24T03:35:57;6.47;;;1.50;;
24145;SDS011;12308;50.948;4.706;2023-03-24T03:38:46;6.40;;;1.58;;
24145;SDS011;12308;50.948;4.706;2023-03-24T03:41:19;7.07;;;1.50;;
24145;SDS011;12308;50.948;4.706;2023-03-24T03:43:45;6.15;;;1.20;;
24145;SDS011;12308;50.948;4.706;2023-03-24T03:46:12;7.95;;;1.50;;
24145;SDS011;12308;50.948;4.706;2023-03-24T03:48:39;11.95;;;3.55;;
24145;SDS011;12308;50.948;4.706;2023-03-24T03:51:07;8.27;;;1.77;;
24145;SDS011;12308;50.948;4.706;2023-03-24T03:53:45;6.97;;;1.73;;
24145;SDS011;12308;50.948;4.706;2023-03-24T03:56:19;8.35;;;2.20;;
24145;SDS011;12308;50.948;4.706;2023-03-24T03:58:47;4.82;;;1.20;;
24145;SDS011;12308;50.948;4.706;2023-03-24T04:01:21;14.13;;;4.90;;
24145;SDS011;12308;50.948;4.706;2023-03-24T04:09:40;11.15;;;2.28;;
24145;SDS011;12308;50.948;4.706;2023-03-24T04:17:51;12.27;;;2.58;;
24145;SDS011;12308;50.948;4.706;2023-03-24T04:20:33;12.63;;;2.92;;
24145;SDS011;12308;50.948;4.706;2023-03-24T04:23:46;17.83;;;3.70;;
24145;SDS011;12308;50.948;4.706;2023-03-24T04:26:27;15.20;;;2.10;;
24145;SDS011;12308;50.948;4.706;2023-03-24T04:29:53;10.18;;;1.85;;
24145;SDS011;12308;50.948;4.706;2023-03-24T04:35:05;11.10;;;2.67;;
24145;SDS011;12308;50.948;4.706;2023-03-24T04:37:35;16.73;;;2.60;;
24145;SDS011;12308;50.948;4.706;2023-03-24T04:40:06;16.70;;;2.28;;
24145;SDS011;12308;50.948;4.706;2023-03-24T04:42:40;14.55;;;2.85;;
24145;SDS011;12308;50.948;4.706;2023-03-24T04:45:09;15.20;;;2.33;;
24145;SDS011;12308;50.948;4.706;2023-03-24T04:47:41;15.00;;;2.10;;
24145;SDS011;12308;50.948;4.706;2023-03-24T04:50:11;15.63;;;2.30;;
24145;SDS011;12308;50.948;4.706;2023-03-24T04:52:38;20.27;;;3.47;;
24145;SDS011;12308;50.948;4.706;2023-03-24T04:55:14;15.60;;;2.55;;
24145;SDS011;12308;50.948;4.706;2023-03-24T04:58:01;18.30;;;3.25;;
24145;SDS011;12308;50.948;4.706;2023-03-24T05:00:28;18.95;;;2.80;;
24145;SDS011;12308;50.948;4.706;2023-03-24T05:02:56;15.88;;;2.85;;
24145;SDS011;12308;50.948;4.706;2023-03-24T05:05:21;19.85;;;2.88;;
24145;SDS011;12308;50.948;4.706;2023-03-24T05:07:47;15.60;;;5.57;;
24145;SDS011;12308;50.948;4.706;2023-03-24T05:10:13;20.13;;;6.25;;
24145;SDS011;12308;50.948;4.706;2023-03-24T05:12:39;13.35;;;1.98;;
24145;SDS011;12308;50.948;4.706;2023-03-24T05:15:05;22.67;;;2.72;;
24145;SDS011;12308;50.948;4.706;2023-03-24T05:17:31;17.17;;;3.20;;
24145;SDS011;12308;50.948;4.706;2023-03-24T05:19:57;17.23;;;2.20;;
24145;SDS011;12308;50.948;4.706;2023-03-24T05:22:22;21.42;;;2.78;;
24145;SDS011;12308;50.948;4.706;2023-03-24T05:24:48;23.58;;;3.20;;
24145;SDS011;12308;50.948;4.706;2023-03-24T05:27:14;20.17;;;2.60;;
24145;SDS011;12308;50.948;4.706;2023-03-24T05:29:40;38.55;;;8.65;;
24145;SDS011;12308;50.948;4.706;2023-03-24T05:32:05;22.42;;;4.53;;
24145;SDS011;12308;50.948;4.706;2023-03-24T05:34:31;14.13;;;2.70;;
24145;SDS011;12308;50.948;4.706;2023-03-24T05:36:57;16.33;;;3.47;;
24145;SDS011;12308;50.948;4.706;2023-03-24T05:39:22;20.02;;;3.25;;
24145;SDS011;12308;50.948;4.706;2023-03-24T05:41:48;16.38;;;2.75;;
24145;SDS011;12308;50.948;4.706;2023-03-24T05:44:14;19.40;;;3.10;;
24145;SDS011;12308;50.948;4.706;2023-03-24T05:46:39;21.23;;;3.42;;
24145;SDS011;12308;50.948;4.706;2023-03-24T05:49:06;20.58;;;4.00;;
24145;SDS011;12308;50.948;4.706;2023-03-24T05:51:32;22.02;;;4.15;;
24145;SDS011;12308;50.948;4.706;2023-03-24T05:53:57;20.23;;;4.22;;
24145;SDS011;12308;50.948;4.706;2023-03-24T05:56:23;28.73;;;4.43;;
24145;SDS011;12308;50.948;4.706;2023-03-24T05:58:49;23.63;;;3.88;;
24145;SDS011;12308;50.948;4.706;2023-03-24T06:01:15;23.73;;;4.00;;
24145;SDS011;12308;50.948;4.706;2023-03-24T06:03:42;23.00;;;3.97;;
24145;SDS011;12308;50.948;4.706;2023-03-24T06:06:08;21.30;;;3.90;;
24145;SDS011;12308;50.948;4.706;2023-03-24T06:08:40;21.52;;;3.78;;
24145;SDS011;12308;50.948;4.706;2023-03-24T06:11:09;25.27;;;3.35;;
24145;SDS011;12308;50.948;4.706;2023-03-24T06:13:35;19.10;;;3.25;;
24145;SDS011;12308;50.948;4.706;2023-03-24T06:16:01;18.75;;;3.45;;
24145;SDS011;12308;50.948;4.706;2023-03-24T06:18:26;21.27;;;3.30;;
24145;SDS011;12308;50.948;4.706;2023-03-24T06:20:53;23.65;;;4.25;;
24145;SDS011;12308;50.948;4.706;2023-03-24T06:23:22;24.65;;;3.55;;
24145;SDS011;12308;50.948;4.706;2023-03-24T06:25:50;23.17;;;3.25;;
24145;SDS011;12308;50.948;4.706;2023-03-24T06:28:16;20.90;;;2.88;;
24145;SDS011;12308;50.948;4.706;2023-03-24T06:30:42;17.10;;;2.50;;
24145;SDS011;12308;50.948;4.706;2023-03-24T06:33:08;17.02;;;2.78;;
24145;SDS011;12308;50.948;4.706;2023-03-24T06:35:35;25.33;;;3.17;;
24145;SDS011;12308;50.948;4.706;2023-03-24T06:38:01;24.77;;;3.67;;
24145;SDS011;12308;50.948;4.706;2023-03-24T06:40:27;22.70;;;3.72;;
24145;SDS011;12308;50.948;4.706;2023-03-24T06:42:54;15.77;;;2.80;;
24145;SDS011;12308;50.948;4.706;2023-03-24T06:45:20;23.52;;;3.53;;
24145;SDS011;12308;50.948;4.706;2023-03-24T06:47:45;26.40;;;2.92;;
24145;SDS011;12308;50.948;4.706;2023-03-24T06:50:11;25.92;;;3.20;;
24145;SDS011;12308;50.948;4.706;2023-03-24T06:52:37;18.27;;;3.20;;
24145;SDS011;12308;50.948;4.706;2023-03-24T06:55:03;21.25;;;3.42;;
24145;SDS011;12308;50.948;4.706;2023-03-24T06:57:30;15.77;;;3.17;;
24145;SDS011;12308;50.948;4.706;2023-03-24T06:59:55;16.77;;;2.75;;
24145;SDS011;12308;50.948;4.706;2023-03-24T07:02:21;16.83;;;2.92;;
24145;SDS011;12308;50.948;4.706;2023-03-24T07:04:47;21.65;;;3.72;;
24145;SDS011;12308;50.948;4.706;2023-03-24T07:07:14;16.63;;;2.72;;
24145;SDS011;12308;50.948;4.706;2023-03-24T07:09:41;18.80;;;2.63;;
24145;SDS011;12308;50.948;4.706;2023-03-24T07:12:07;17.77;;;2.45;;
24145;SDS011;12308;50.948;4.706;2023-03-24T07:14:33;18.30;;;2.85;;
24145;SDS011;12308;50.948;4.706;2023-03-24T07:16:59;29.65;;;4.00;;
24145;SDS011;12308;50.948;4.706;2023-03-24T07:19:25;20.05;;;3.22;;
24145;SDS011;12308;50.948;4.706;2023-03-24T07:21:51;19.55;;;1.85;;
24145;SDS011;12308;50.948;4.706;2023-03-24T07:24:17;22.77;;;3.35;;
24145;SDS011;12308;50.948;4.706;2023-03-24T07:26:43;21.08;;;3.50;;
24145;SDS011;12308;50.948;4.706;2023-03-24T07:29:09;16.63;;;2.67;;
24145;SDS011;12308;50.948;4.706;2023-03-24T07:31:36;18.90;;;2.78;;
24145;SDS011;12308;50.948;4.706;2023-03-24T07:34:05;18.17;;;2.50;;
24145;SDS011;12308;50.948;4.706;2023-03-24T07:36:31;21.30;;;2.85;;
24145;SDS011;12308;50.948;4.706;2023-03-24T07:38:57;18.98;;;2.92;;
24145;SDS011;12308;50.948;4.706;2023-03-24T07:41:23;18.08;;;3.40;;
24145;SDS011;12308;50.948;4.706;2023-03-24T07:43:50;20.25;;;3.90;;
24145;SDS011;12308;50.948;4.706;2023-03-24T07:46:16;16.02;;;2.10;;
24145;SDS011;12308;50.948;4.706;2023-03-24T07:48:42;13.38;;;2.70;;
24145;SDS011;12308;50.948;4.706;2023-03-24T07:51:07;15.18;;;1.80;;
24145;SDS011;12308;50.948;4.706;2023-03-24T07:53:33;24.67;;;2.92;;
24145;SDS011;12308;50.948;4.706;2023-03-24T07:55:59;16.25;;;2.70;;
24145;SDS011;12308;50.948;4.706;2023-03-24T07:58:24;11.73;;;1.95;;
24145;SDS011;12308;50.948;4.706;2023-03-24T08:00:50;17.85;;;2.53;;
24145;SDS011;12308;50.948;4.706;2023-03-24T08:03:16;18.80;;;3.58;;
24145;SDS011;12308;50.948;4.706;2023-03-24T08:05:41;17.55;;;2.25;;
24145;SDS011;12308;50.948;4.706;2023-03-24T08:08:08;20.85;;;2.92;;
24145;SDS011;12308;50.948;4.706;2023-03-24T08:10:34;16.33;;;2.47;;
24145;SDS011;12308;50.948;4.706;2023-03-24T08:13:00;15.52;;;2.50;;
24145;SDS011;12308;50.948;4.706;2023-03-24T08:15:26;17.17;;;2.60;;
24145;SDS011;12308;50.948;4.706;2023-03-24T08:17:52;25.58;;;2.92;;
24145;SDS011;12308;50.948;4.706;2023-03-24T08:20:20;13.65;;;2.42;;
24145;SDS011;12308;50.948;4.706;2023-03-24T08:22:49;15.30;;;2.22;;
24145;SDS011;12308;50.948;4.706;2023-03-24T08:25:18;15.68;;;2.85;;
24145;SDS011;12308;50.948;4.706;2023-03-24T08:27:45;16.20;;;2.30;;
24145;SDS011;12308;50.948;4.706;2023-03-24T08:30:15;15.55;;;2.58;;
24145;SDS011;12308;50.948;4.706;2023-03-24T08:35:10;13.65;;;2.70;;
24145;SDS011;12308;50.948;4.706;2023-03-24T08:37:39;13.65;;;2.42;;
24145;SDS011;12308;50.948;4.706;2023-03-24T08:40:07;18.02;;;2.80;;
24145;SDS011;12308;50.948;4.706;2023-03-24T08:42:38;12.80;;;2.22;;
24145;SDS011;12308;50.948;4.706;2023-03-24T08:45:04;15.13;;;2.45;;
24145;SDS011;12308;50.948;4.706;2023-03-24T08:47:31;17.38;;;2.90;;
24145;SDS011;12308;50.948;4.706;2023-03-24T08:49:56;12.73;;;2.83;;
24145;SDS011;12308;50.948;4.706;2023-03-24T08:52:23;12.30;;;2.00;;
24145;SDS011;12308;50.948;4.706;2023-03-24T08:54:50;12.60;;;2.50;;
24145;SDS011;12308;50.948;4.706;2023-03-24T08:57:16;14.95;;;3.20;;
24145;SDS011;12308;50.948;4.706;2023-03-24T08:59:42;14.15;;;3.58;;
24145;SDS011;12308;50.948;4.706;2023-03-24T09:02:08;18.35;;;3.67;;
24145;SDS011;12308;50.948;4.706;2023-03-24T09:04:36;17.60;;;4.00;;
24145;SDS011;12308;50.948;4.706;2023-03-24T09:07:02;18.05;;;5.22;;
24145;SDS011;12308;50.948;4.706;2023-03-24T09:09:28;13.88;;;2.63;;
24145;SDS011;12308;50.948;4.706;2023-03-24T09:11:54;13.50;;;2.42;;
24145;SDS011;12308;50.948;4.706;2023-03-24T09:14:19;18.02;;;3.35;;
24145;SDS011;12308;50.948;4.706;2023-03-24T09:16:46;23.85;;;3.50;;
24145;SDS011;12308;50.948;4.706;2023-03-24T09:19:13;13.63;;;2.65;;
24145;SDS011;12308;50.948;4.706;2023-03-24T09:21:39;22.70;;;3.10;;
24145;SDS011;12308;50.948;4.706;2023-03-24T09:24:06;12.32;;;2.42;;
24145;SDS011;12308;50.948;4.706;2023-03-24T09:26:32;18.45;;;3.60;;
24145;SDS011;12308;50.948;4.706;2023-03-24T09:28:58;12.55;;;2.38;;
24145;SDS011;12308;50.948;4.706;2023-03-24T09:31:24;13.00;;;2.97;;
24145;SDS011;12308;50.948;4.706;2023-03-24T09:33:50;14.43;;;2.20;;
24145;SDS011;12308;50.948;4.706;2023-03-24T09:36:16;22.30;;;3.42;;
24145;SDS011;12308;50.948;4.706;2023-03-24T09:38:42;16.40;;;2.92;;
24145;SDS011;12308;50.948;4.706;2023-03-24T09:41:16;12.25;;;2.03;;
24145;SDS011;12308;50.948;4.706;2023-03-24T09:46:25;22.85;;;2.40;;
24145;SDS011;12308;50.948;4.706;2023-03-24T09:48:58;16.60;;;2.65;;
24145;SDS011;12308;50.948;4.706;2023-03-24T09:56:25;11.00;;;2.38;;
24145;SDS011;12308;50.948;4.706;2023-03-24T09:59:01;10.90;;;2.15;;
24145;SDS011;12308;50.948;4.706;2023-03-24T10:01:36;17.63;;;2.05;;
24145;SDS011;12308;50.948;4.706;2023-03-24T10:04:02;12.32;;;1.98;;
24145;SDS011;12308;50.948;4.706;2023-03-24T10:06:47;14.95;;;2.38;;
24145;SDS011;12308;50.948;4.706;2023-03-24T10:09:21;14.98;;;2.53;;
24145;SDS011;12308;50.948;4.706;2023-03-24T10:22:33;16.73;;;2.40;;
24145;SDS011;12308;50.948;4.706;2023-03-24T10:25:24;11.13;;;2.80;;
24145;SDS011;12308;50.948;4.706;2023-03-24T10:28:15;16.88;;;5.10;;
24145;SDS011;12308;50.948;4.706;2023-03-24T10:30:45;14.55;;;2.53;;
24145;SDS011;12308;50.948;4.706;2023-03-24T10:33:12;10.35;;;2.13;;
24145;SDS011;12308;50.948;4.706;2023-03-24T10:36:21;12.48;;;2.40;;
24145;SDS011;12308;50.948;4.706;2023-03-24T10:38:32;13.55;;;2.13;;
24145;SDS011;12308;50.948;4.706;2023-03-24T10:40:57;11.20;;;2.33;;
24145;SDS011;12308;50.948;4.706;2023-03-24T10:43:24;11.65;;;2.55;;
24145;SDS011;12308;50.948;4.706;2023-03-24T10:45:51;14.52;;;2.47;;
24145;SDS011;12308;50.948;4.706;2023-03-24T10:48:39;22.30;;;5.57;;
24145;SDS011;12308;50.948;4.706;2023-03-24T10:51:17;18.80;;;5.03;;
24145;SDS011;12308;50.948;4.706;2023-03-24T10:53:47;7.78;;;2.05;;
24145;SDS011;12308;50.948;4.706;2023-03-24T10:56:17;9.55;;;2.58;;
24145;SDS011;12308;50.948;4.706;2023-03-24T10:59:02;14.05;;;2.20;;
24145;SDS011;12308;50.948;4.706;2023-03-24T11:01:30;10.93;;;1.95;;
24145;SDS011;12308;50.948;4.706;2023-03-24T11:03:59;10.43;;;2.10;;
24145;SDS011;12308;50.948;4.706;2023-03-24T11:06:29;11.05;;;2.15;;
24145;SDS011;12308;50.948;4.706;2023-03-24T11:09:08;13.10;;;2.25;;
24145;SDS011;12308;50.948;4.706;2023-03-24T11:11:42;10.90;;;1.92;;
24145;SDS011;12308;50.948;4.706;2023-03-24T11:14:17;11.35;;;2.17;;
24145;SDS011;12308;50.948;4.706;2023-03-24T11:16:46;11.52;;;2.33;;
24145;SDS011;12308;50.948;4.706;2023-03-24T11:19:16;13.13;;;2.22;;
24145;SDS011;12308;50.948;4.706;2023-03-24T11:21:44;9.93;;;1.90;;
24145;SDS011;12308;50.948;4.706;2023-03-24T11:24:12;17.17;;;2.60;;
24145;SDS011;12308;50.948;4.706;2023-03-24T11:26:45;12.50;;;2.63;;
24145;SDS011;12308;50.948;4.706;2023-03-24T11:29:21;15.10;;;2.30;;
24145;SDS011;12308;50.948;4.706;2023-03-24T11:31:53;12.68;;;2.30;;
24145;SDS011;12308;50.948;4.706;2023-03-24T11:34:31;14.35;;;2.72;;
24145;SDS011;12308;50.948;4.706;2023-03-24T11:37:24;13.63;;;2.40;;
24145;SDS011;12308;50.948;4.706;2023-03-24T11:42:43;8.73;;;1.77;;
24145;SDS011;12308;50.948;4.706;2023-03-24T11:48:03;12.97;;;2.30;;
24145;SDS011;12308;50.948;4.706;2023-03-24T11:50:35;23.48;;;2.53;;
24145;SDS011;12308;50.948;4.706;2023-03-24T11:55:43;12.32;;;1.98;;
24145;SDS011;12308;50.948;4.706;2023-03-24T11:58:34;11.45;;;2.15;;
24145;SDS011;12308;50.948;4.706;2023-03-24T12:03:54;27.42;;;6.15;;
24145;SDS011;12308;50.948;4.706;2023-03-24T12:17:40;12.63;;;2.95;;
24145;SDS011;12308;50.948;4.706;2023-03-24T12:20:30;21.70;;;6.40;;
24145;SDS011;12308;50.948;4.706;2023-03-24T12:28:32;15.82;;;2.40;;
24145;SDS011;12308;50.948;4.706;2023-03-24T12:40:06;18.13;;;1.98;;
24145;SDS011;12308;50.948;4.706;2023-03-24T12:42:39;12.43;;;1.98;;
24145;SDS011;12308;50.948;4.706;2023-03-24T12:45:12;13.18;;;2.28;;
24145;SDS011;12308;50.948;4.706;2023-03-24T12:50:41;13.75;;;1.98;;
24145;SDS011;12308;50.948;4.706;2023-03-24T12:56:36;14.68;;;1.80;;
24145;SDS011;12308;50.948;4.706;2023-03-24T13:01:53;13.70;;;2.03;;
24145;SDS011;12308;50.948;4.706;2023-03-24T13:04:33;11.68;;;2.10;;
24145;SDS011;12308;50.948;4.706;2023-03-24T13:07:04;16.05;;;2.88;;
24145;SDS011;12308;50.948;4.706;2023-03-24T13:09:42;13.10;;;1.92;;
24145;SDS011;12308;50.948;4.706;2023-03-24T13:12:21;14.68;;;2.05;;
24145;SDS011;12308;50.948;4.706;2023-03-24T13:17:38;11.73;;;2.22;;
24145;SDS011;12308;50.948;4.706;2023-03-24T13:20:13;8.50;;;1.70;;
24145;SDS011;12308;50.948;4.706;2023-03-24T13:22:48;10.27;;;2.28;;
24145;SDS011;12308;50.948;4.706;2023-03-24T13:25:21;10.70;;;1.83;;
24145;SDS011;12308;50.948;4.706;2023-03-24T13:27:52;6.55;;;1.50;;
24145;SDS011;12308;50.948;4.706;2023-03-24T13:30:27;11.27;;;1.80;;
24145;SDS011;12308;50.948;4.706;2023-03-24T13:32:57;10.68;;;2.15;;
24145;SDS011;12308;50.948;4.706;2023-03-24T13:38:17;10.25;;;2.10;;
24145;SDS011;12308;50.948;4.706;2023-03-24T13:41:20;8.25;;;1.83;;
24145;SDS011;12308;50.948;4.706;2023-03-24T13:43:59;12.77;;;2.03;;
24145;SDS011;12308;50.948;4.706;2023-03-24T13:46:30;16.67;;;2.10;;
24145;SDS011;12308;50.948;4.706;2023-03-24T13:48:56;9.68;;;2.20;;
24145;SDS011;12308;50.948;4.706;2023-03-24T13:53:55;7.20;;;1.45;;
24145;SDS011;12308;50.948;4.706;2023-03-24T13:56:25;7.70;;;1.58;;
24145;SDS011;12308;50.948;4.706;2023-03-24T14:04:43;6.18;;;1.45;;
24145;SDS011;12308;50.948;4.706;2023-03-24T14:09:58;10.73;;;1.50;;
24145;SDS011;12308;50.948;4.706;2023-03-24T14:12:25;14.93;;;2.15;;
24145;SDS011;12308;50.948;4.706;2023-03-24T14:17:44;11.68;;;2.13;;
24145;SDS011;12308;50.948;4.706;2023-03-24T14:20:12;16.58;;;6.15;;
24145;SDS011;12308;50.948;4.706;2023-03-24T14:22:49;11.38;;;2.40;;
24145;SDS011;12308;50.948;4.706;2023-03-24T14:25:20;10.50;;;3.38;;
24145;SDS011;12308;50.948;4.706;2023-03-24T14:27:53;11.07;;;2.20;;
24145;SDS011;12308;50.948;4.706;2023-03-24T14:30:32;4.68;;;1.60;;
24145;SDS011;12308;50.948;4.706;2023-03-24T14:33:02;13.35;;;2.05;;
24145;SDS011;12308;50.948;4.706;2023-03-24T14:35:32;9.23;;;1.60;;
24145;SDS011;12308;50.948;4.706;2023-03-24T14:40:40;9.95;;;1.83;;
24145;SDS011;12308;50.948;4.706;2023-03-24T14:46:00;7.32;;;2.22;;
24145;SDS011;12308;50.948;4.706;2023-03-24T14:51:11;9.90;;;1.90;;
24145;SDS011;12308;50.948;4.706;2023-03-24T14:54:12;9.55;;;2.15;;
24145;SDS011;12308;50.948;4.706;2023-03-24T14:56:45;10.93;;;1.63;;
24145;SDS011;12308;50.948;4.706;2023-03-24T14:59:21;10.75;;;1.90;;
24145;SDS011;12308;50.948;4.706;2023-03-24T15:02:14;9.65;;;1.83;;
24145;SDS011;12308;50.948;4.706;2023-03-24T15:07:45;8.93;;;2.08;;
24145;SDS011;12308;50.948;4.706;2023-03-24T15:10:23;8.32;;;1.73;;
24145;SDS011;12308;50.948;4.706;2023-03-24T15:12:49;10.13;;;2.03;;
24145;SDS011;12308;50.948;4.706;2023-03-24T15:15:17;7.60;;;1.73;;
24145;SDS011;12308;50.948;4.706;2023-03-24T15:17:46;6.63;;;1.48;;
24145;SDS011;12308;50.948;4.706;2023-03-24T15:20:25;8.00;;;1.30;;
24145;SDS011;12308;50.948;4.706;2023-03-24T15:22:53;7.53;;;1.55;;
24145;SDS011;12308;50.948;4.706;2023-03-24T15:25:25;7.35;;;1.55;;
24145;SDS011;12308;50.948;4.706;2023-03-24T15:27:52;9.07;;;1.40;;
24145;SDS011;12308;50.948;4.706;2023-03-24T15:30:19;10.05;;;1.40;;
24145;SDS011;12308;50.948;4.706;2023-03-24T15:32:45;4.28;;;1.02;;
24145;SDS011;12308;50.948;4.706;2023-03-24T15:35:20;4.45;;;1.17;;
24145;SDS011;12308;50.948;4.706;2023-03-24T15:37:50;8.93;;;1.20;;
24145;SDS011;12308;50.948;4.706;2023-03-24T15:42:50;3.35;;;0.90;;
24145;SDS011;12308;50.948;4.706;2023-03-24T15:45:22;5.70;;;1.08;;
24145;SDS011;12308;50.948;4.706;2023-03-24T15:47:57;8.32;;;1.20;;
24145;SDS011;12308;50.948;4.706;2023-03-24T15:52:59;6.45;;;1.48;;
24145;SDS011;12308;50.948;4.706;2023-03-24T15:55:27;7.72;;;1.10;;
24145;SDS011;12308;50.948;4.706;2023-03-24T15:57:56;6.75;;;1.38;;
24145;SDS011;12308;50.948;4.706;2023-03-24T16:00:28;6.55;;;1.02;;
24145;SDS011;12308;50.948;4.706;2023-03-24T16:03:00;8.48;;;1.48;;
24145;SDS011;12308;50.948;4.706;2023-03-24T16:05:29;5.55;;;1.17;;
24145;SDS011;12308;50.948;4.706;2023-03-24T16:08:00;5.22;;;1.20;;
24145;SDS011;12308;50.948;4.706;2023-03-24T16:13:14;6.47;;;1.05;;
24145;SDS011;12308;50.948;4.706;2023-03-24T16:15:44;9.93;;;1.33;;
24145;SDS011;12308;50.948;4.706;2023-03-24T16:20:56;6.05;;;0.95;;
24145;SDS011;12308;50.948;4.706;2023-03-24T16:23:26;7.95;;;1.20;;
24145;SDS011;12308;50.948;4.706;2023-03-24T16:25:52;9.23;;;1.52;;
24145;SDS011;12308;50.948;4.706;2023-03-24T16:28:19;6.75;;;1.65;;
24145;SDS011;12308;50.948;4.706;2023-03-24T16:30:48;8.10;;;1.27;;
24145;SDS011;12308;50.948;4.706;2023-03-24T16:33:19;6.05;;;1.15;;
24145;SDS011;12308;50.948;4.706;2023-03-24T16:35:45;8.13;;;1.25;;
24145;SDS011;12308;50.948;4.706;2023-03-24T16:38:12;5.43;;;1.10;;
24145;SDS011;12308;50.948;4.706;2023-03-24T16:40:39;5.78;;;1.02;;
24145;SDS011;12308;50.948;4.706;2023-03-24T16:43:08;8.88;;;1.40;;
24145;SDS011;12308;50.948;4.706;2023-03-24T16:45:34;9.85;;;1.20;;
24145;SDS011;12308;50.948;4.706;2023-03-24T16:48:00;9.77;;;1.55;;
24145;SDS011;12308;50.948;4.706;2023-03-24T16:52:52;6.63;;;1.70;;
24145;SDS011;12308;50.948;4.706;2023-03-24T16:55:17;11.95;;;2.00;;
24145;SDS011;12308;50.948;4.706;2023-03-24T16:57:43;7.13;;;2.10;;
24145;SDS011;12308;50.948;4.706;2023-03-24T17:00:09;10.55;;;2.65;;
24145;SDS011;12308;50.948;4.706;2023-03-24T17:02:36;13.30;;;3.35;;
24145;SDS011;12308;50.948;4.706;2023-03-24T17:05:14;14.43;;;3.60;;
24145;SDS011;12308;50.948;4.706;2023-03-24T17:07:48;18.55;;;3.80;;
24145;SDS011;12308;50.948;4.706;2023-03-24T17:10:15;14.63;;;4.07;;
24145;SDS011;12308;50.948;4.706;2023-03-24T17:12:41;9.82;;;3.25;;
24145;SDS011;12308;50.948;4.706;2023-03-24T17:15:18;12.85;;;3.97;;
24145;SDS011;12308;50.948;4.706;2023-03-24T17:17:49;12.57;;;2.70;;
24145;SDS011;12308;50.948;4.706;2023-03-24T17:20:15;10.38;;;2.53;;
24145;SDS011;12308;50.948;4.706;2023-03-24T17:22:42;11.50;;;3.42;;
24145;SDS011;12308;50.948;4.706;2023-03-24T17:25:10;11.43;;;2.28;;
24145;SDS011;12308;50.948;4.706;2023-03-24T17:27:37;7.05;;;1.58;;
24145;SDS011;12308;50.948;4.706;2023-03-24T17:30:03;6.90;;;1.90;;
24145;SDS011;12308;50.948;4.706;2023-03-24T17:32:31;7.88;;;1.80;;
24145;SDS011;12308;50.948;4.706;2023-03-24T17:34:58;4.50;;;1.35;;